Quick Links (Output Below):   Max & Min Temps   /   Climate Reports   /   Zone Forecasts
River Forecasts   /   Forestry Forecasts   /   Aviation Forecasts   /   Radars   /   Features

Terminal Aerodrome Forecast (Pine Bluff)

Pick a Site:
Arkadelphia | El Dorado | Fayetteville | Fort Smith | Harrison | Highfill | Hot Springs | Jonesboro
Little Rock | Monticello | Mountain Home | Pine Bluff | Texarkana
 Forecast 

KPBF 130520Z 1306/1406 34006KT P6SM SCT250
     FM130800 06007KT P6SM SCT100 BKN250
     FM131400 08007KT P6SM SCT250
     FM131800 12006KT P6SM SCT250=


 Latest METARs (Observations) 
How to Decode METARs
11Z KPBF 131053Z AUTO 03009KT 10SM CLR 02/M04 A3051 RMK AO2 SNB13E44
         SLP330 P0000 T00221044
         
10Z KPBF 130953Z AUTO 03009KT 10SM CLR 03/M03 A3048 RMK AO2 SLP322
         T00331033
         
09Z KPBF 130853Z AUTO 05010KT 10SM CLR 04/M04 A3046 RMK AO2 SLP315
         T00441039 50010
         
08Z KPBF 130753Z AUTO 03011KT 10SM CLR 05/M03 A3047 RMK AO2 SLP318
         T00501028
         
07Z KPBF 130653Z AUTO 02009KT 10SM CLR 06/M02 A3045 RMK AO2 SLP310
         T00561022
         
06Z KPBF 130553Z AUTO 02013KT 10SM CLR 06/M02 A3043 RMK AO2 SLP306
         T00611022 10111 20039 401561006 51022
         
05Z KPBF 130453Z AUTO 02006KT 10SM CLR 06/00 A3041 RMK AO2 SLP299
         T00610000
         
04Z KPBF 130353Z AUTO 03005KT 10SM CLR 07/00 A3039 RMK AO2 SLP292
         T00670000
         
03Z KPBF 130253Z AUTO 04003KT 10SM CLR 06/01 A3037 RMK AO2 SLP284
         T00560006 53021
         
02Z KPBF 130153Z AUTO 00000KT 10SM CLR 08/01 A3034 RMK AO2 SLP275
         T00780006
         
***** Today's Observations (Above) *****


Back to Main Page
http://www.srh.noaa.gov/lzk/qfcst.php

USA.gov is the U.S. government's official web portal to all federal, state and local government web resources and services.